Time;durP1;ratioP1;P1;durP2;ratioP2;P2;SDS_P1;SDS_P2;PMS_P1;PMS_P2;Temp;Humidity;BMP_temperature;BMP_pressure;BME280_temperature;BME280_humidity;BME280_pressure;Samples;Min_cycle;Max_cycle;Signal;HPM_P1;HPM_P2
2022/12/11 00:01:49;;;;;;;22.85;19.08;;;8.80;99.90;;;;;;4240631;28;20046;-90
2022/12/11 00:04:09;;;;;;;19.83;17.90;;;8.70;99.90;;;;;;4242115;28;20046;-90
2022/12/11 00:06:29;;;;;;;22.13;18.20;;;8.70;99.90;;;;;;4225942;28;20092;-90
2022/12/11 00:08:53;;;;;;;22.23;19.67;;;8.70;99.90;;;;;;4226440;28;20150;-90
2022/12/11 00:11:16;;;;;;;28.40;19.45;;;8.60;99.90;;;;;;4219668;28;20047;-89
2022/12/11 00:13:36;;;;;;;22.40;19.02;;;8.60;99.90;;;;;;4229977;28;20281;-90
2022/12/11 00:15:59;;;;;;;22.33;19.45;;;8.60;99.90;;;;;;4226941;28;20119;-89
2022/12/11 00:18:19;;;;;;;354.73;33.72;;;8.50;99.90;;;;;;4224765;28;20243;-90
2022/12/11 00:20:39;;;;;;;272.92;32.13;;;8.50;99.90;;;;;;4213450;28;20112;-91
2022/12/11 00:22:59;;;;;;;350.77;34.13;;;8.50;99.90;;;;;;4239837;28;20034;-89
2022/12/11 00:25:18;;;;;;;166.55;27.83;;;8.50;99.90;;;;;;4240790;28;20145;-90
2022/12/11 00:27:38;;;;;;;140.73;27.20;;;8.50;99.90;;;;;;4241617;28;20055;-90
2022/12/11 00:29:57;;;;;;;88.50;23.73;;;8.50;99.90;;;;;;4242185;28;20047;-90
2022/12/11 00:32:17;;;;;;;113.07;26.73;;;8.50;99.90;;;;;;4240638;28;20039;-90
2022/12/11 00:34:37;;;;;;;36.42;23.00;;;8.40;99.90;;;;;;4239790;28;20238;-90
2022/12/11 00:36:57;;;;;;;84.80;25.90;;;8.40;99.90;;;;;;4226905;28;20047;-89
2022/12/11 00:39:17;;;;;;;267.50;36.97;;;8.40;99.90;;;;;;4240469;28;20049;-90
2022/12/11 00:41:38;;;;;;;390.67;39.83;;;8.40;99.90;;;;;;4228639;28;20057;-89
2022/12/11 00:43:57;;;;;;;614.25;55.03;;;8.40;99.90;;;;;;4235054;28;20103;-89
2022/12/11 00:46:17;;;;;;;154.75;27.80;;;8.40;99.90;;;;;;4240098;28;20058;-90
2022/12/11 00:48:38;;;;;;;239.70;33.88;;;8.40;99.90;;;;;;4225972;28;20047;-89
2022/12/11 00:50:58;;;;;;;491.25;47.78;;;8.30;99.90;;;;;;4238930;28;20061;-89
2022/12/11 00:53:18;;;;;;;385.30;37.35;;;8.30;99.90;;;;;;4217756;28;20069;-89
2022/12/11 00:55:39;;;;;;;497.00;40.28;;;8.30;99.90;;;;;;4226552;28;20070;-89
2022/12/11 00:57:59;;;;;;;625.03;45.67;;;8.30;99.90;;;;;;4242271;28;20230;-90
2022/12/11 01:00:19;;;;;;;566.75;41.72;;;8.30;99.90;;;;;;4243805;28;20365;-88
2022/12/11 01:02:39;;;;;;;622.72;47.80;;;8.30;99.90;;;;;;4232134;28;20074;-90
2022/12/11 01:05:00;;;;;;;350.73;31.23;;;8.20;99.90;;;;;;4227601;28;20062;-89
2022/12/11 01:07:20;;;;;;;426.50;37.88;;;8.30;99.90;;;;;;4238931;28;20058;-90
2022/12/11 01:12:18;;;;;;;440.92;37.80;;;8.30;99.90;;;;;;4239512;28;20039;-89
2022/12/11 01:14:38;;;;;;;443.25;38.72;;;8.30;99.90;;;;;;4232944;28;20046;-90
2022/12/11 01:16:58;;;;;;;504.05;42.13;;;8.30;99.90;;;;;;4221739;28;20043;-89
2022/12/11 01:19:17;;;;;;;362.75;35.63;;;8.20;99.90;;;;;;4234632;28;20050;-89
2022/12/11 01:21:37;;;;;;;413.38;36.85;;;8.20;99.90;;;;;;4239919;28;20078;-90
2022/12/11 01:23:57;;;;;;;555.70;44.17;;;8.20;99.90;;;;;;4241212;28;20081;-89
2022/12/11 01:26:18;;;;;;;358.63;32.40;;;8.20;99.90;;;;;;4232199;28;20046;-89
2022/12/11 01:28:38;;;;;;;158.90;23.55;;;8.20;99.90;;;;;;4236149;28;20047;-89
2022/12/11 01:30:58;;;;;;;72.60;21.92;;;8.10;99.90;;;;;;4228315;28;20043;-89
2022/12/11 01:33:18;;;;;;;39.28;18.40;;;8.10;99.90;;;;;;4239990;28;20096;-88
2022/12/11 01:35:38;;;;;;;139.13;24.38;;;8.20;99.90;;;;;;4241642;28;20043;-89
2022/12/11 01:37:58;;;;;;;242.80;30.23;;;8.20;99.90;;;;;;4246494;28;20050;-89
2022/12/11 01:40:19;;;;;;;528.35;40.00;;;8.10;99.90;;;;;;4231991;28;20268;-89
2022/12/11 01:42:40;;;;;;;572.20;46.20;;;8.00;99.90;;;;;;4226198;28;20051;-90
2022/12/11 01:45:57;;;;;;;534.67;41.20;;;8.00;99.90;;;;;;4227944;28;20050;-89
2022/12/11 01:48:21;;;;;;;563.95;39.55;;;8.00;99.90;;;;;;4179275;28;20071;-90
2022/12/11 01:50:47;;;;;;;517.80;37.85;;;8.00;99.90;;;;;;4165330;28;20057;-89
2022/12/11 01:53:11;;;;;;;448.38;37.38;;;7.90;99.90;;;;;;4180491;28;20117;-90
2022/12/11 01:55:33;;;;;;;24.77;17.33;;;7.80;99.90;;;;;;4172684;28;20068;-90
2022/12/11 01:57:53;;;;;;;15.32;12.27;;;7.80;99.90;;;;;;4173462;28;20209;-89
2022/12/11 02:00:13;;;;;;;12.35;11.60;;;7.80;99.90;;;;;;4185486;28;20071;-85
2022/12/11 02:02:33;;;;;;;12.68;11.70;;;7.80;99.90;;;;;;4181489;28;20459;-86
2022/12/11 02:04:53;;;;;;;13.20;12.25;;;7.70;99.90;;;;;;4181995;28;20075;-86
2022/12/11 02:07:13;;;;;;;16.83;15.35;;;7.70;99.90;;;;;;4181531;28;20064;-86
2022/12/11 02:09:36;;;;;;;21.35;19.33;;;7.70;99.90;;;;;;4171970;28;20401;-86
2022/12/11 02:12:14;;;;;;;20.17;17.02;;;7.70;99.90;;;;;;4175993;28;20160;-86
2022/12/11 02:14:42;;;;;;;14.93;13.45;;;7.60;99.90;;;;;;4163579;28;20153;-85
2022/12/11 02:17:19;;;;;;;13.23;12.00;;;7.50;99.90;;;;;;4184950;28;20109;-86
2022/12/11 02:19:51;;;;;;;11.68;10.88;;;7.60;99.90;;;;;;4208658;28;20054;-86
2022/12/11 02:22:26;;;;;;;19.10;17.15;;;7.60;99.90;;;;;;4237110;28;20100;-86
2022/12/11 02:25:01;;;;;;;17.80;16.02;;;7.60;99.90;;;;;;4235022;28;20046;-86
2022/12/11 02:27:40;;;;;;;13.43;12.10;;;7.60;99.90;;;;;;4241120;28;20043;-86
2022/12/11 02:30:14;;;;;;;52.88;13.48;;;7.60;99.90;;;;;;4225423;28;20286;-86
2022/12/11 02:32:40;;;;;;;25.63;13.32;;;7.50;99.90;;;;;;4224386;28;20070;-86
2022/12/11 02:35:10;;;;;;;249.63;19.90;;;7.50;99.90;;;;;;4238792;28;20414;-86
2022/12/11 02:37:34;;;;;;;30.08;12.55;;;7.40;99.90;;;;;;4222981;28;20063;-86
2022/12/11 02:39:55;;;;;;;21.77;13.00;;;7.40;99.90;;;;;;4239835;28;20362;-86
2022/12/11 02:42:18;;;;;;;198.18;19.55;;;7.30;99.90;;;;;;4216641;28;20047;-86
2022/12/11 02:44:40;;;;;;;102.80;13.80;;;7.30;99.90;;;;;;4215783;28;20051;-86
2022/12/11 02:47:02;;;;;;;13.23;12.07;;;7.20;99.90;;;;;;4197257;28;20083;-86
2022/12/11 02:49:23;;;;;;;13.60;12.43;;;7.20;99.90;;;;;;4227378;28;20078;-86
2022/12/11 02:51:43;;;;;;;12.70;11.80;;;7.30;99.90;;;;;;4226956;28;20081;-86
2022/12/11 02:54:07;;;;;;;90.28;14.85;;;7.30;99.90;;;;;;4226381;28;20047;-86
2022/12/11 02:56:45;;;;;;;193.10;21.13;;;7.30;99.90;;;;;;4225914;28;20066;-85
2022/12/11 02:59:17;;;;;;;219.55;18.20;;;7.20;99.90;;;;;;4236471;28;20059;-85
2022/12/11 03:01:37;;;;;;;210.50;18.40;;;7.10;99.90;;;;;;4215361;28;20067;-86
2022/12/11 03:03:57;;;;;;;233.88;16.48;;;7.10;99.90;;;;;;4240710;28;20084;-86
2022/12/11 03:06:28;;;;;;;310.77;20.77;;;7.10;99.90;;;;;;4246702;28;20047;-86
2022/12/11 03:08:50;;;;;;;316.50;19.13;;;7.10;99.90;;;;;;4211940;28;20039;-86
2022/12/11 03:11:11;;;;;;;249.50;19.13;;;7.10;99.90;;;;;;4204778;28;20409;-86
2022/12/11 03:13:31;;;;;;;134.15;13.90;;;7.10;99.90;;;;;;4221962;28;20077;-86
2022/12/11 03:15:52;;;;;;;125.70;13.50;;;7.20;99.90;;;;;;4251144;27;20051;-86
2022/12/11 03:18:17;;;;;;;55.90;11.02;;;7.20;99.90;;;;;;4237076;27;20050;-86
2022/12/11 03:21:07;;;;;;;86.22;12.38;;;7.20;99.90;;;;;;4247404;27;20120;-86
2022/12/11 03:23:32;;;;;;;123.38;12.45;;;7.10;99.90;;;;;;4240259;28;20439;-85
2022/12/11 03:26:01;;;;;;;7.35;7.03;;;7.00;99.90;;;;;;4240594;28;20359;-85
2022/12/11 03:28:28;;;;;;;8.35;7.95;;;7.10;99.90;;;;;;4234118;28;20085;-86
2022/12/11 03:30:52;;;;;;;8.68;8.18;;;7.20;99.90;;;;;;4223544;28;20035;-85
2022/12/11 03:33:23;;;;;;;11.43;10.27;;;7.10;99.90;;;;;;4240742;28;20062;-85
2022/12/11 03:35:48;;;;;;;9.00;8.10;;;7.10;99.90;;;;;;4244815;28;20357;-86
2022/12/11 03:38:14;;;;;;;8.30;7.70;;;7.10;99.90;;;;;;4225966;28;20035;-86
2022/12/11 03:40:34;;;;;;;8.10;7.65;;;7.20;99.90;;;;;;4217301;28;20410;-85
2022/12/11 03:42:56;;;;;;;7.20;6.65;;;7.20;99.90;;;;;;4238777;28;20046;-85
2022/12/11 03:45:18;;;;;;;9.23;8.38;;;7.10;99.90;;;;;;4225490;28;20058;-86
2022/12/11 03:47:40;;;;;;;8.60;8.20;;;7.10;99.90;;;;;;4243965;28;20149;-86
2022/12/11 03:50:01;;;;;;;7.82;7.53;;;7.10;99.90;;;;;;4240963;28;20099;-86
2022/12/11 03:52:22;;;;;;;7.00;6.57;;;7.10;99.90;;;;;;4203108;28;20075;-85
2022/12/11 03:54:45;;;;;;;7.22;6.80;;;7.10;99.90;;;;;;4138754;28;20085;-86
2022/12/11 03:57:06;;;;;;;;;;;7.10;99.90;;;;;;4217962;28;20055;-86
2022/12/11 03:59:26;;;;;;;8.57;6.78;;;7.10;99.90;;;;;;4241151;28;20181;-86
2022/12/11 04:01:46;;;;;;;7.07;6.57;;;7.20;99.90;;;;;;4239023;28;20050;-85
2022/12/11 04:04:06;;;;;;;7.63;7.22;;;7.20;99.90;;;;;;4226702;28;20078;-85
2022/12/11 04:06:26;;;;;;;6.03;5.88;;;7.20;99.90;;;;;;4226255;28;20274;-85
2022/12/11 04:08:45;;;;;;;7.90;7.22;;;7.20;99.90;;;;;;4223515;28;20085;-86
2022/12/11 04:13:43;;;;;;;7.72;7.28;;;7.40;99.90;;;;;;4244128;28;20043;-86
2022/12/11 04:16:03;;;;;;;7.35;7.05;;;7.40;99.90;;;;;;4223859;28;20047;-86
2022/12/11 04:26:38;;;;;;;6.03;5.70;;;7.50;99.90;;;;;;4172066;28;20087;-85
2022/12/11 04:28:58;;;;;;;4.80;4.50;;;7.50;99.90;;;;;;4171637;28;20367;-85
2022/12/11 04:31:19;;;;;;;4.22;4.03;;;7.50;99.90;;;;;;4170234;28;20064;-85
2022/12/11 04:33:40;;;;;;;5.47;5.20;;;7.60;99.90;;;;;;4155029;28;20038;-85
2022/12/11 04:36:00;;;;;;;7.80;6.03;;;7.60;99.90;;;;;;4158635;28;20061;-85
2022/12/11 04:38:20;;;;;;;4.45;4.38;;;7.60;99.90;;;;;;4175851;28;20056;-85
2022/12/11 04:40:40;;;;;;;5.22;4.78;;;7.60;99.90;;;;;;4177155;28;20505;-85
2022/12/11 04:42:59;;;;;;;3.92;3.72;;;7.70;99.90;;;;;;4173964;28;20361;-85
2022/12/11 04:45:19;;;;;;;4.40;4.30;;;7.70;99.90;;;;;;4171903;28;20056;-86
2022/12/11 04:47:40;;;;;;;4.35;4.22;;;7.70;99.90;;;;;;4171783;28;20137;-85
2022/12/11 04:49:59;;;;;;;3.83;3.83;;;7.70;99.90;;;;;;4171068;28;20141;-85
2022/12/11 04:52:20;;;;;;;5.72;3.97;;;7.70;99.90;;;;;;4160683;28;20044;-85
2022/12/11 04:54:40;;;;;;;4.90;4.68;;;7.70;99.90;;;;;;4169203;28;20056;-86
2022/12/11 04:57:00;;;;;;;5.00;4.60;;;7.70;99.90;;;;;;4193381;28;20055;-86
2022/12/11 04:59:20;;;;;;;4.47;3.80;;;7.70;99.90;;;;;;4239738;28;20392;-85
2022/12/11 05:01:40;;;;;;;4.40;4.15;;;7.70;99.90;;;;;;4239778;28;20042;-85
2022/12/11 05:04:00;;;;;;;4.00;3.90;;;7.60;99.90;;;;;;4225142;28;20051;-86
2022/12/11 05:06:20;;;;;;;5.15;3.20;;;7.60;99.90;;;;;;4236806;28;20077;-85
2022/12/11 05:08:41;;;;;;;4.90;4.78;;;7.60;99.90;;;;;;4231937;28;20373;-86
2022/12/11 05:11:05;;;;;;;5.35;4.72;;;7.60;99.90;;;;;;4235917;28;20108;-85
2022/12/11 05:13:26;;;;;;;5.35;4.47;;;7.60;99.90;;;;;;4237739;28;20050;-86
2022/12/11 05:15:46;;;;;;;5.10;4.68;;;7.60;99.90;;;;;;4239157;28;20054;-85
2022/12/11 05:18:05;;;;;;;4.93;4.80;;;7.60;99.90;;;;;;4244482;28;20057;-86
2022/12/11 05:20:25;;;;;;;6.80;5.05;;;7.60;99.90;;;;;;4241541;28;20046;-86
2022/12/11 05:22:45;;;;;;;5.93;5.63;;;7.60;99.90;;;;;;4238837;28;20073;-85
2022/12/11 05:25:06;;;;;;;5.78;4.78;;;7.60;99.90;;;;;;4223760;28;20050;-86
2022/12/11 05:27:26;;;;;;;4.93;4.50;;;7.60;99.90;;;;;;4223965;28;20035;-85
2022/12/11 05:29:45;;;;;;;4.72;4.07;;;7.60;99.90;;;;;;4239601;28;20058;-86
2022/12/11 05:32:05;;;;;;;6.03;4.78;;;7.80;99.90;;;;;;4223724;28;20291;-86
2022/12/11 05:34:25;;;;;;;6.80;4.72;;;7.70;99.90;;;;;;4226639;28;20085;-86
2022/12/11 05:36:46;;;;;;;10.02;6.20;;;7.60;99.90;;;;;;4237946;28;20047;-86
2022/12/11 05:39:06;;;;;;;5.07;4.72;;;7.80;99.90;;;;;;4227293;28;20315;-86
2022/12/11 05:41:29;;;;;;;4.97;4.43;;;7.70;99.90;;;;;;4236951;28;20046;-85
2022/12/11 05:43:49;;;;;;;7.90;5.63;;;7.60;99.90;;;;;;4224326;28;20066;-86
2022/12/11 05:46:15;;;;;;;6.63;5.38;;;7.50;99.90;;;;;;4239894;28;20047;-86
2022/12/11 05:48:36;;;;;;;10.85;3.72;;;7.60;99.90;;;;;;4218683;28;20110;-85
2022/12/11 05:50:58;;;;;;;11.07;7.00;;;7.60;99.90;;;;;;4237932;28;20050;-85
2022/12/11 05:53:17;;;;;;;6.53;5.40;;;7.60;99.90;;;;;;4239318;28;20364;-85
2022/12/11 05:55:37;;;;;;;5.65;4.82;;;7.60;99.90;;;;;;4225621;28;20089;-85
2022/12/11 05:57:57;;;;;;;5.40;5.07;;;7.60;99.90;;;;;;4238724;28;20047;-85
2022/12/11 06:00:17;;;;;;;4.53;4.22;;;7.80;99.90;;;;;;4221984;28;20420;-85
2022/12/11 06:02:37;;;;;;;6.45;5.43;;;8.00;99.90;;;;;;4238556;28;20042;-85
2022/12/11 06:04:57;;;;;;;6.72;5.03;;;7.90;99.90;;;;;;4237060;28;20051;-85
2022/12/11 06:07:17;;;;;;;5.93;5.43;;;7.70;99.90;;;;;;4235486;28;20042;-85
2022/12/11 06:09:36;;;;;;;5.55;5.07;;;7.90;99.90;;;;;;4229700;28;20308;-85
2022/12/11 06:11:56;;;;;;;6.22;5.80;;;7.80;99.90;;;;;;4237670;28;20357;-85
2022/12/11 06:14:16;;;;;;;9.52;5.30;;;7.70;99.90;;;;;;4230399;28;20138;-85
2022/12/11 06:16:36;;;;;;;5.05;4.63;;;7.70;99.90;;;;;;4224275;28;20263;-85
2022/12/11 06:18:56;;;;;;;8.93;6.00;;;7.60;99.90;;;;;;4239293;28;20107;-85
2022/12/11 06:21:31;;;;;;;6.85;5.88;;;7.60;99.90;;;;;;4228774;28;20086;-85
2022/12/11 06:23:54;;;;;;;6.45;4.90;;;7.60;99.90;;;;;;4247933;28;20049;-85
2022/12/11 06:26:15;;;;;;;8.45;6.15;;;7.60;99.90;;;;;;4219139;28;20043;-85
2022/12/11 06:28:36;;;;;;;9.43;5.65;;;7.60;99.90;;;;;;4241905;28;20089;-85
2022/12/11 06:31:00;;;;;;;7.60;5.65;;;7.50;99.90;;;;;;4241550;28;20097;-85
2022/12/11 06:33:20;;;;;;;12.48;5.63;;;7.50;99.90;;;;;;4217322;28;20043;-85
2022/12/11 06:35:39;;;;;;;5.38;4.80;;;7.60;99.90;;;;;;4229827;28;20125;-85
2022/12/11 06:38:01;;;;;;;7.65;5.40;;;7.50;99.90;;;;;;4235696;28;20043;-85
2022/12/11 06:40:22;;;;;;;10.70;6.18;;;7.60;99.90;;;;;;4226285;28;20414;-85
2022/12/11 06:42:41;;;;;;;10.52;5.65;;;7.60;99.90;;;;;;4241717;28;20137;-85
2022/12/11 06:45:01;;;;;;;12.45;5.38;;;7.40;99.90;;;;;;4227093;28;20055;-85
2022/12/11 06:47:21;;;;;;;8.52;5.68;;;7.40;99.90;;;;;;4224646;28;20228;-85
2022/12/11 06:49:41;;;;;;;18.13;6.38;;;7.50;99.90;;;;;;4228073;28;20116;-85
2022/12/11 06:52:01;;;;;;;8.70;6.05;;;7.50;99.90;;;;;;4241901;28;20227;-85
2022/12/11 06:54:26;;;;;;;14.25;6.38;;;7.50;99.90;;;;;;4237553;28;20128;-85
2022/12/11 06:56:46;;;;;;;15.57;6.90;;;7.50;99.90;;;;;;4227860;28;20030;-85
2022/12/11 06:59:09;;;;;;;5.95;4.85;;;7.60;99.90;;;;;;4213463;28;20031;-85
2022/12/11 07:01:59;;;;;;;5.05;4.57;;;7.60;99.90;;;;;;4242939;27;20031;-86
2022/12/11 07:04:23;;;;;;;9.88;6.47;;;7.70;99.90;;;;;;4163964;28;20126;-86
2022/12/11 07:06:46;;;;;;;6.78;5.55;;;7.60;99.90;;;;;;4173082;28;20173;-86
2022/12/11 07:09:06;;;;;;;8.70;7.00;;;7.50;99.90;;;;;;4164016;28;20063;-86
2022/12/11 07:11:25;;;;;;;6.07;5.47;;;7.50;99.90;;;;;;4174124;28;20680;-86
2022/12/11 07:13:46;;;;;;;12.07;6.38;;;7.40;99.90;;;;;;4173246;28;20059;-86
2022/12/11 07:16:09;;;;;;;9.23;5.88;;;7.30;99.90;;;;;;4173503;28;20137;-86
2022/12/11 07:18:31;;;;;;;9.75;6.20;;;7.40;99.90;;;;;;4174446;28;20052;-86
2022/12/11 07:20:51;;;;;;;12.43;5.93;;;7.60;99.90;;;;;;4173215;28;20087;-86
2022/12/11 07:23:10;;;;;;;11.05;8.55;;;7.70;99.90;;;;;;4168717;28;20047;-86
2022/12/11 07:25:30;;;;;;;9.48;6.72;;;7.70;99.90;;;;;;4162044;28;20402;-85
2022/12/11 07:27:50;;;;;;;7.60;6.90;;;7.70;99.90;;;;;;4171674;28;20079;-86
2022/12/11 07:30:10;;;;;;;25.48;9.75;;;7.90;99.90;;;;;;4171158;28;20056;-86
2022/12/11 07:32:30;;;;;;;14.45;9.90;;;8.20;99.90;;;;;;4169830;28;20061;-86
2022/12/11 07:34:50;;;;;;;13.05;9.30;;;8.20;99.90;;;;;;4170673;28;20039;-85
2022/12/11 07:37:11;;;;;;;15.07;9.27;;;8.10;99.90;;;;;;4172504;28;20048;-86
2022/12/11 07:39:31;;;;;;;10.45;7.75;;;8.10;99.90;;;;;;4172832;28;20052;-86
2022/12/11 07:41:52;;;;;;;19.58;7.75;;;8.00;99.90;;;;;;4143616;28;20124;-86
2022/12/11 07:44:12;;;;;;;3.85;3.70;;;8.00;99.90;;;;;;4147876;28;20046;-85
2022/12/11 07:46:33;;;;;;;3.70;3.50;;;7.40;99.90;;;;;;4226593;28;20082;-86
2022/12/11 07:48:53;;;;;;;3.90;3.90;;;6.20;99.90;;;;;;4226903;28;20373;-85
2022/12/11 07:51:21;;;;;;;3.40;3.30;;;5.40;99.90;;;;;;4241696;28;20062;-86
2022/12/11 07:53:42;;;;;;;4.13;4.03;;;4.70;99.90;;;;;;4241524;28;20077;-88
2022/12/11 07:56:03;;;;;;;3.55;3.45;;;4.30;99.90;;;;;;4239395;28;20074;-87
2022/12/11 07:58:23;;;;;;;3.90;3.90;;;4.00;99.90;;;;;;4224340;28;20051;-87
2022/12/11 08:00:44;;;;;;;5.32;5.03;;;3.80;99.90;;;;;;4224905;28;20078;-86
2022/12/11 08:03:04;;;;;;;4.38;4.28;;;3.70;99.90;;;;;;4238724;28;20239;-86
2022/12/11 08:05:23;;;;;;;4.30;4.20;;;3.80;99.90;;;;;;4225021;28;20051;-86
2022/12/11 08:07:43;;;;;;;10.18;9.98;;;3.80;99.90;;;;;;4243079;28;20066;-86
2022/12/11 08:10:03;;;;;;;14.95;14.07;;;3.90;99.90;;;;;;4225315;28;20090;-87
2022/12/11 08:12:23;;;;;;;17.10;16.08;;;3.60;99.90;;;;;;4236509;28;20385;-86
2022/12/11 08:14:43;;;;;;;13.60;13.00;;;3.40;99.90;;;;;;4224473;28;20058;-87
2022/12/11 08:17:03;;;;;;;10.23;10.13;;;3.40;99.90;;;;;;4239385;28;20042;-86
2022/12/11 08:19:23;;;;;;;12.52;12.02;;;3.40;99.90;;;;;;4240981;28;20054;-86
2022/12/11 08:21:43;;;;;;;8.82;8.57;;;3.40;99.90;;;;;;4238787;28;20042;-86
2022/12/11 08:24:03;;;;;;;7.10;7.00;;;3.50;99.90;;;;;;4242250;28;20103;-86
2022/12/11 08:26:27;;;;;;;7.85;7.57;;;3.60;99.90;;;;;;4224059;28;20047;-86
2022/12/11 08:28:47;;;;;;;5.28;5.18;;;3.60;99.90;;;;;;4237202;28;20262;-86
2022/12/11 08:31:09;;;;;;;5.97;5.88;;;3.50;99.90;;;;;;4225897;28;20046;-86
2022/12/11 08:33:29;;;;;;;5.63;5.53;;;3.50;99.90;;;;;;4228310;28;20303;-86
2022/12/11 08:35:49;;;;;;;7.03;6.75;;;3.60;99.90;;;;;;4233716;28;20283;-86
2022/12/11 08:38:09;;;;;;;9.43;9.13;;;3.60;99.90;;;;;;4224266;28;20412;-86
2022/12/11 08:40:29;;;;;;;10.55;10.27;;;3.60;99.90;;;;;;4224189;28;20051;-86
2022/12/11 08:42:49;;;;;;;7.13;6.93;;;3.60;99.90;;;;;;4239046;28;20275;-86
2022/12/11 08:45:09;;;;;;;7.90;7.63;;;3.60;99.90;;;;;;4241150;28;20120;-87
2022/12/11 08:47:29;;;;;;;6.00;5.90;;;3.60;99.90;;;;;;4239636;28;20046;-86
2022/12/11 08:49:49;;;;;;;7.15;7.05;;;3.60;99.90;;;;;;4239087;28;20050;-87
2022/12/11 08:52:09;;;;;;;7.38;7.28;;;3.60;99.90;;;;;;4225239;28;20231;-86
2022/12/11 08:54:28;;;;;;;7.80;7.60;;;3.70;99.90;;;;;;4238268;28;20126;-86
2022/12/11 08:56:48;;;;;;;15.35;14.15;;;3.70;99.90;;;;;;4225059;28;20066;-86
2022/12/11 08:59:14;;;;;;;11.27;10.20;;;3.80;99.90;;;;;;4224670;28;20089;-86
2022/12/11 09:01:33;;;;;;;6.35;6.15;;;3.90;99.90;;;;;;4239542;28;20090;-86
2022/12/11 09:03:55;;;;;;;12.77;11.85;;;3.80;99.90;;;;;;4221405;28;20060;-86
2022/12/11 09:06:17;;;;;;;10.43;10.00;;;3.90;99.90;;;;;;4224192;28;20046;-85
2022/12/11 09:08:38;;;;;;;9.43;9.10;;;3.90;99.90;;;;;;4237839;28;20035;-85
2022/12/11 09:11:07;;;;;;;11.27;10.80;;;4.00;99.90;;;;;;4220818;28;20131;-85
2022/12/11 09:13:27;;;;;;;11.75;11.43;;;4.10;99.90;;;;;;4245997;28;20411;-85
2022/12/11 09:15:47;;;;;;;6.55;6.45;;;4.10;99.90;;;;;;4223965;28;20050;-85
2022/12/11 09:18:07;;;;;;;6.20;6.10;;;4.10;99.90;;;;;;4241094;28;20038;-85
2022/12/11 09:20:28;;;;;;;9.43;9.07;;;4.00;99.90;;;;;;4240735;28;20046;-85
2022/12/11 09:22:47;;;;;;;5.32;5.13;;;4.00;99.90;;;;;;4225242;28;20042;-84
2022/12/11 09:25:08;;;;;;;4.22;4.22;;;4.00;99.90;;;;;;4224043;28;20055;-85
2022/12/11 09:27:28;;;;;;;5.95;5.85;;;4.00;99.90;;;;;;4240178;28;20268;-84
2022/12/11 09:29:48;;;;;;;13.93;13.25;;;4.00;99.90;;;;;;4215235;28;20158;-85
2022/12/11 09:32:08;;;;;;;9.98;9.77;;;4.10;99.90;;;;;;4140513;28;20050;-85
2022/12/11 09:34:28;;;;;;;11.75;11.25;;;4.10;99.90;;;;;;4224910;28;20055;-84
2022/12/11 09:36:48;;;;;;;7.88;7.60;;;4.10;99.90;;;;;;4235614;28;20051;-85
2022/12/11 09:39:10;;;;;;;5.85;5.55;;;4.10;99.90;;;;;;4154264;28;20379;-85
2022/12/11 09:41:55;;;;;;;7.93;7.72;;;4.10;99.90;;;;;;4219930;28;20042;-85
2022/12/11 09:44:18;;;;;;;7.65;7.30;;;4.10;99.90;;;;;;4210963;28;20055;-85
2022/12/11 09:46:39;;;;;;;;;;;4.10;99.90;;;;;;4203984;28;20059;-85
2022/12/11 09:49:01;;;;;;;10.10;9.50;;;4.20;99.90;;;;;;4211553;28;19957;-85
2022/12/11 09:51:31;;;;;;;8.68;8.38;;;4.20;99.90;;;;;;4211739;28;20289;-85
2022/12/11 09:53:54;;;;;;;5.43;5.32;;;4.30;99.90;;;;;;4209679;28;20054;-84
2022/12/11 09:56:32;;;;;;;6.20;5.95;;;4.40;99.90;;;;;;4210928;28;20090;-84
2022/12/11 09:59:14;;;;;;;5.32;5.22;;;4.30;99.90;;;;;;4228479;28;20069;-85
2022/12/11 10:01:47;;;;;;;4.75;4.75;;;4.40;99.90;;;;;;4222466;28;20162;-85
2022/12/11 10:04:10;;;;;;;;;;;4.40;99.90;;;;;;4177587;28;20369;-85
2022/12/11 10:06:53;;;;;;;6.60;6.43;;;4.40;99.90;;;;;;4223161;28;19991;-85
2022/12/11 10:09:33;;;;;;;4.57;4.47;;;4.40;99.90;;;;;;4236228;28;20118;-84
2022/12/11 10:12:30;;;;;;;4.82;4.82;;;4.20;99.90;;;;;;4236938;28;20039;-84
2022/12/11 10:15:07;;;;;;;13.75;13.05;;;4.10;99.90;;;;;;4229285;27;20178;-84
2022/12/11 10:17:33;;;;;;;9.95;9.75;;;4.20;99.90;;;;;;4229682;28;20350;-85
2022/12/11 10:20:15;;;;;;;8.23;8.02;;;4.20;99.90;;;;;;4241636;28;20108;-84
2022/12/11 10:22:35;;;;;;;7.38;7.13;;;4.10;99.90;;;;;;4224114;28;20082;-84
2022/12/11 10:25:05;;;;;;;5.72;5.53;;;4.20;99.90;;;;;;4226266;28;20085;-84
2022/12/11 10:27:38;;;;;;;6.28;6.18;;;4.20;99.90;;;;;;4223884;28;20054;-84
2022/12/11 10:30:12;;;;;;;6.40;6.30;;;4.40;99.90;;;;;;4237763;28;20243;-84
2022/12/11 10:32:55;;;;;;;5.93;5.82;;;4.40;99.90;;;;;;4223628;28;20050;-84
2022/12/11 10:35:30;;;;;;;15.40;14.30;;;4.40;99.90;;;;;;4221793;28;20042;-84
2022/12/11 10:37:54;;;;;;;13.77;12.82;;;4.50;99.90;;;;;;4226234;28;20082;-85
2022/12/11 10:40:17;;;;;;;12.45;11.65;;;4.60;99.90;;;;;;4236713;28;20114;-85
2022/12/11 10:42:37;;;;;;;12.40;11.57;;;4.60;99.90;;;;;;4228005;28;20078;-84
2022/12/11 10:45:15;;;;;;;11.23;10.82;;;4.70;99.90;;;;;;4233184;28;20080;-84
2022/12/11 10:47:35;;;;;;;6.30;5.95;;;4.70;99.90;;;;;;4224770;28;20050;-85
2022/12/11 10:49:58;;;;;;;6.20;6.00;;;4.70;99.90;;;;;;4244752;27;20027;-85
2022/12/11 10:52:31;;;;;;;7.22;7.13;;;4.50;99.90;;;;;;4231555;28;20366;-85
2022/12/11 10:55:01;;;;;;;11.10;10.73;;;4.70;99.90;;;;;;4238821;28;20372;-84
2022/12/11 10:57:28;;;;;;;12.85;12.02;;;4.90;99.90;;;;;;4234472;28;20141;-85
2022/12/11 10:59:49;;;;;;;17.02;15.65;;;4.90;99.90;;;;;;4223153;28;20047;-85
2022/12/11 11:02:37;;;;;;;16.33;14.88;;;5.10;99.90;;;;;;4142632;28;20065;-85
2022/12/11 11:04:59;;;;;;;16.35;15.20;;;5.20;99.90;;;;;;4224697;28;20035;-85
2022/12/11 11:07:26;;;;;;;15.85;14.65;;;5.30;99.90;;;;;;4227121;28;20085;-85
2022/12/11 11:09:46;;;;;;;12.00;11.32;;;5.40;99.90;;;;;;4227774;28;20050;-85
2022/12/11 11:12:25;;;;;;;13.18;12.40;;;5.50;99.90;;;;;;4225999;28;20086;-85
2022/12/11 11:14:44;;;;;;;10.88;10.50;;;5.50;99.90;;;;;;4239977;28;20066;-85
2022/12/11 11:17:04;;;;;;;10.25;9.75;;;5.40;99.90;;;;;;4237570;28;20400;-85
2022/12/11 11:19:33;;;;;;;8.52;8.20;;;5.40;99.90;;;;;;4225723;28;20059;-85
2022/12/11 11:22:16;;;;;;;15.75;14.45;;;5.40;99.90;;;;;;4229370;28;20281;-85
2022/12/11 11:24:40;;;;;;;20.60;18.73;;;5.40;99.90;;;;;;4233300;28;20055;-83
2022/12/11 11:27:00;;;;;;;8.32;8.07;;;5.40;99.90;;;;;;4239511;28;20110;-83
2022/12/11 11:29:36;;;;;;;9.50;9.07;;;5.30;99.90;;;;;;4228428;28;20401;-82
2022/12/11 11:32:19;;;;;;;8.73;8.43;;;5.20;99.90;;;;;;4241369;28;20326;-82
2022/12/11 11:34:38;;;;;;;8.63;8.43;;;5.20;99.90;;;;;;4223136;28;20043;-82
2022/12/11 11:37:04;;;;;;;6.65;6.50;;;5.20;99.90;;;;;;4242156;28;20381;-82
2022/12/11 11:39:37;;;;;;;7.95;7.85;;;5.30;99.90;;;;;;4239592;28;20055;-82
2022/12/11 11:42:13;;;;;;;12.90;12.00;;;5.30;99.90;;;;;;4236739;28;20235;-82
2022/12/11 11:44:45;;;;;;;6.18;6.07;;;5.40;99.90;;;;;;4239557;28;20238;-82
2022/12/11 11:47:14;;;;;;;6.55;6.45;;;5.50;99.90;;;;;;4241864;28;20284;-83
2022/12/11 11:49:54;;;;;;;10.05;9.73;;;5.40;99.90;;;;;;4240757;28;20042;-82
2022/12/11 11:52:24;;;;;;;8.00;7.80;;;5.40;99.90;;;;;;4227276;28;20040;-83
2022/12/11 11:55:08;;;;;;;7.55;7.45;;;5.30;99.90;;;;;;4235847;28;20042;-82
2022/12/11 11:57:55;;;;;;;16.27;14.82;;;5.30;99.90;;;;;;4239499;28;20092;-82
2022/12/11 12:00:28;;;;;;;7.32;7.22;;;5.10;99.90;;;;;;4243980;28;20272;-83
2022/12/11 12:03:21;;;;;;;6.22;6.03;;;5.00;99.90;;;;;;4225463;28;20098;-83
2022/12/11 12:05:50;;;;;;;10.73;10.02;;;5.00;99.90;;;;;;4212359;28;20239;-83
2022/12/11 12:08:27;;;;;;;10.20;9.48;;;5.10;99.90;;;;;;4188487;28;20039;-83
2022/12/11 12:11:06;;;;;;;5.65;5.50;;;5.00;99.90;;;;;;4225146;28;20077;-83
2022/12/11 12:14:09;;;;;;;6.13;6.03;;;5.00;99.90;;;;;;4225348;28;20362;-83
2022/12/11 12:17:14;;;;;;;5.18;5.00;;;5.00;99.90;;;;;;4182130;28;20104;-83
2022/12/11 12:19:58;;;;;;;8.40;8.18;;;4.90;99.90;;;;;;4185640;28;20171;-83
2022/12/11 12:22:50;;;;;;;19.33;17.55;;;4.80;99.90;;;;;;4182431;28;20132;-83
2022/12/11 12:25:41;;;;;;;9.18;8.88;;;4.80;99.90;;;;;;4182672;28;20132;-83
2022/12/11 12:28:04;;;;;;;7.18;6.97;;;4.70;99.90;;;;;;4173277;28;20092;-83
2022/12/11 12:30:29;;;;;;;8.35;7.88;;;4.70;99.90;;;;;;4175349;28;20091;-82
2022/12/11 12:33:18;;;;;;;7.72;7.35;;;4.70;99.90;;;;;;4182110;28;20044;-82
2022/12/11 12:35:49;;;;;;;13.98;12.82;;;4.70;99.90;;;;;;4183971;28;20407;-82
2022/12/11 12:38:43;;;;;;;17.00;15.40;;;4.60;99.90;;;;;;4173261;28;20053;-82
2022/12/11 12:41:27;;;;;;;13.98;13.18;;;4.70;99.90;;;;;;4187298;28;20136;-82
2022/12/11 12:44:01;;;;;;;14.35;13.45;;;4.70;99.90;;;;;;4181051;28;20141;-83
2022/12/11 12:46:33;;;;;;;16.83;15.63;;;4.70;99.90;;;;;;4170529;28;20132;-82
2022/12/11 12:48:55;;;;;;;16.13;14.88;;;4.70;99.90;;;;;;4178180;28;20040;-83